Terminal Aerodrome Forecast
Issued by NWS

Home | Current Version | Previous Version | Text Only | Print | Product List | Glossary On
Versions: 1 2 3 4 5 6 7 8 9 10 11 12 13 14 15 16 17 18 19
000
FTUS46 KEKA 231100
TAFUKI
TAF
KUKI 231139Z 2312/2412 16003KT P6SM SCT008
     FM231400 16004KT P6SM BKN008
     FM231800 VRB04KT P6SM SKC
     FM232100 28010KT P6SM SKC
     FM240200 36005KT P6SM SKC
     FM240400 00000KT P6SM SKC=

USA.gov is the U.S. government's official web portal to all federal, state and local government web resources and services.